sensor_id;sensor_type;location;lat;lon;timestamp;pressure;altitude;pressure_sealevel;temperature;humidity
85304;BME280;75708;47.930;13.782;2024-01-15T00:00:42;94730.41;;;0.65;62.83
85304;BME280;75708;47.930;13.782;2024-01-15T00:03:08;94767.19;;;1.32;60.77
85304;BME280;75708;47.930;13.782;2024-01-15T00:05:34;94723.56;;;1.77;57.83
85304;BME280;75708;47.930;13.782;2024-01-15T00:08:00;94704.34;;;2.12;57.93
85304;BME280;75708;47.930;13.782;2024-01-15T00:10:25;94729.56;;;2.08;59.30
85304;BME280;75708;47.930;13.782;2024-01-15T00:12:51;94716.59;;;1.95;61.63
85304;BME280;75708;47.930;13.782;2024-01-15T00:15:16;94705.28;;;1.82;61.96
85304;BME280;75708;47.930;13.782;2024-01-15T00:17:42;94657.97;;;1.52;62.91
85304;BME280;75708;47.930;13.782;2024-01-15T00:20:08;94697.59;;;1.81;64.83
85304;BME280;75708;47.930;13.782;2024-01-15T00:22:33;94732.50;;;1.76;66.03
85304;BME280;75708;47.930;13.782;2024-01-15T00:25:01;94718.34;;;2.01;64.25
85304;BME280;75708;47.930;13.782;2024-01-15T00:27:27;94700.13;;;1.87;64.67
85304;BME280;75708;47.930;13.782;2024-01-15T00:29:52;94693.38;;;1.92;65.11
85304;BME280;75708;47.930;13.782;2024-01-15T00:32:19;94698.97;;;1.95;64.25
85304;BME280;75708;47.930;13.782;2024-01-15T00:34:45;94696.72;;;2.10;64.09
85304;BME280;75708;47.930;13.782;2024-01-15T00:37:11;94703.34;;;2.13;63.32
85304;BME280;75708;47.930;13.782;2024-01-15T00:39:37;94713.97;;;1.71;65.87
85304;BME280;75708;47.930;13.782;2024-01-15T00:42:02;94717.06;;;1.80;66.21
85304;BME280;75708;47.930;13.782;2024-01-15T00:44:28;94724.50;;;1.71;68.89
85304;BME280;75708;47.930;13.782;2024-01-15T00:46:56;94727.31;;;1.46;71.72
85304;BME280;75708;47.930;13.782;2024-01-15T00:49:22;94725.09;;;1.32;73.56
85304;BME280;75708;47.930;13.782;2024-01-15T00:51:48;94708.69;;;1.18;73.84
85304;BME280;75708;47.930;13.782;2024-01-15T00:54:13;94712.63;;;1.27;74.04
85304;BME280;75708;47.930;13.782;2024-01-15T00:56:39;94713.69;;;1.38;72.81
85304;BME280;75708;47.930;13.782;2024-01-15T00:59:07;94701.09;;;1.40;73.94
85304;BME280;75708;47.930;13.782;2024-01-15T01:01:36;94701.09;;;1.40;73.08
85304;BME280;75708;47.930;13.782;2024-01-15T01:04:11;94711.75;;;1.45;73.93
85304;BME280;75708;47.930;13.782;2024-01-15T01:06:36;94700.06;;;1.41;73.48
85304;BME280;75708;47.930;13.782;2024-01-15T01:09:02;94685.75;;;1.37;73.93
85304;BME280;75708;47.930;13.782;2024-01-15T01:11:27;94721.09;;;1.29;75.37
85304;BME280;75708;47.930;13.782;2024-01-15T01:13:53;94728.22;;;1.52;73.29
85304;BME280;75708;47.930;13.782;2024-01-15T01:16:19;94726.50;;;1.46;72.81
85304;BME280;75708;47.930;13.782;2024-01-15T01:18:45;94716.41;;;1.43;73.42
85304;BME280;75708;47.930;13.782;2024-01-15T01:21:10;94725.47;;;1.59;73.78
85304;BME280;75708;47.930;13.782;2024-01-15T01:23:36;94720.00;;;1.60;73.33
85304;BME280;75708;47.930;13.782;2024-01-15T01:26:01;94727.47;;;1.63;74.75
85304;BME280;75708;47.930;13.782;2024-01-15T01:28:27;94733.97;;;1.61;74.41
85304;BME280;75708;47.930;13.782;2024-01-15T01:30:53;94726.53;;;1.69;73.85
85304;BME280;75708;47.930;13.782;2024-01-15T01:33:18;94735.25;;;1.70;72.93
85304;BME280;75708;47.930;13.782;2024-01-15T01:35:44;94736.41;;;1.74;74.12
85304;BME280;75708;47.930;13.782;2024-01-15T01:38:10;94733.66;;;1.80;72.28
85304;BME280;75708;47.930;13.782;2024-01-15T01:40:36;94738.00;;;1.86;72.63
85304;BME280;75708;47.930;13.782;2024-01-15T01:43:03;94719.59;;;1.75;73.24
85304;BME280;75708;47.930;13.782;2024-01-15T01:45:29;94717.03;;;1.68;71.58
85304;BME280;75708;47.930;13.782;2024-01-15T01:47:54;94701.25;;;1.68;71.40
85304;BME280;75708;47.930;13.782;2024-01-15T01:50:20;94727.81;;;1.78;71.20
85304;BME280;75708;47.930;13.782;2024-01-15T01:52:46;94720.47;;;1.57;72.51
85304;BME280;75708;47.930;13.782;2024-01-15T01:55:12;94733.84;;;1.56;72.07
85304;BME280;75708;47.930;13.782;2024-01-15T01:57:38;94721.84;;;1.60;71.52
85304;BME280;75708;47.930;13.782;2024-01-15T02:00:04;94715.53;;;1.49;71.56
85304;BME280;75708;47.930;13.782;2024-01-15T02:02:32;94726.19;;;1.24;72.42
85304;BME280;75708;47.930;13.782;2024-01-15T02:04:58;94701.03;;;1.17;71.83
85304;BME280;75708;47.930;13.782;2024-01-15T02:07:24;94731.19;;;1.44;70.25
85304;BME280;75708;47.930;13.782;2024-01-15T02:09:50;94718.41;;;1.47;70.08
85304;BME280;75708;47.930;13.782;2024-01-15T02:12:16;94729.19;;;1.28;71.00
85304;BME280;75708;47.930;13.782;2024-01-15T02:14:42;94727.31;;;1.17;71.16
85304;BME280;75708;47.930;13.782;2024-01-15T02:17:07;94664.09;;;0.82;71.48
85304;BME280;75708;47.930;13.782;2024-01-15T02:19:33;94724.88;;;1.03;72.02
85304;BME280;75708;47.930;13.782;2024-01-15T02:21:58;94690.59;;;0.80;71.62
85304;BME280;75708;47.930;13.782;2024-01-15T02:24:24;94729.81;;;1.11;71.25
85304;BME280;75708;47.930;13.782;2024-01-15T02:26:50;94708.84;;;0.93;71.19
85304;BME280;75708;47.930;13.782;2024-01-15T02:29:15;94705.50;;;0.86;71.18
85304;BME280;75708;47.930;13.782;2024-01-15T02:31:41;94725.84;;;0.91;71.66
85304;BME280;75708;47.930;13.782;2024-01-15T02:34:07;94744.31;;;1.02;72.32
85304;BME280;75708;47.930;13.782;2024-01-15T02:36:32;94752.13;;;0.91;72.21
85304;BME280;75708;47.930;13.782;2024-01-15T02:38:58;94741.69;;;1.02;71.25
85304;BME280;75708;47.930;13.782;2024-01-15T02:41:24;94740.59;;;0.92;72.54
85304;BME280;75708;47.930;13.782;2024-01-15T02:43:49;94754.72;;;0.79;72.83
85304;BME280;75708;47.930;13.782;2024-01-15T02:46:15;94741.63;;;0.54;74.61
85304;BME280;75708;47.930;13.782;2024-01-15T02:48:41;94760.19;;;0.59;74.05
85304;BME280;75708;47.930;13.782;2024-01-15T02:51:07;94773.03;;;0.49;74.78
85304;BME280;75708;47.930;13.782;2024-01-15T02:53:32;94777.66;;;0.29;74.55
85304;BME280;75708;47.930;13.782;2024-01-15T02:55:58;94785.47;;;0.17;73.21
85304;BME280;75708;47.930;13.782;2024-01-15T02:58:23;94782.34;;;0.02;74.20
85304;BME280;75708;47.930;13.782;2024-01-15T03:00:49;94797.09;;;0.03;74.05
85304;BME280;75708;47.930;13.782;2024-01-15T03:03:14;94803.75;;;0.06;71.68
85304;BME280;75708;47.930;13.782;2024-01-15T03:05:40;94792.31;;;-0.07;73.08
85304;BME280;75708;47.930;13.782;2024-01-15T03:08:05;94808.66;;;-0.05;72.13
85304;BME280;75708;47.930;13.782;2024-01-15T03:10:31;94809.88;;;-0.07;71.21
85304;BME280;75708;47.930;13.782;2024-01-15T03:12:57;94807.06;;;-0.06;70.27
85304;BME280;75708;47.930;13.782;2024-01-15T03:15:22;94807.59;;;-0.22;72.31
85304;BME280;75708;47.930;13.782;2024-01-15T03:17:48;94814.03;;;-0.18;70.15
85304;BME280;75708;47.930;13.782;2024-01-15T03:20:14;94805.28;;;-0.36;68.69
85304;BME280;75708;47.930;13.782;2024-01-15T03:22:39;94821.09;;;-0.18;70.05
85304;BME280;75708;47.930;13.782;2024-01-15T03:25:06;94801.41;;;-0.34;69.79
85304;BME280;75708;47.930;13.782;2024-01-15T03:27:32;94833.25;;;0.01;66.30
85304;BME280;75708;47.930;13.782;2024-01-15T03:29:57;94823.81;;;-0.07;66.95
85304;BME280;75708;47.930;13.782;2024-01-15T03:32:23;94841.63;;;-0.15;67.63
85304;BME280;75708;47.930;13.782;2024-01-15T03:34:48;94826.44;;;-0.07;66.37
85304;BME280;75708;47.930;13.782;2024-01-15T03:37:14;94782.81;;;-0.32;67.10
85304;BME280;75708;47.930;13.782;2024-01-15T03:39:39;94832.50;;;-0.06;66.57
85304;BME280;75708;47.930;13.782;2024-01-15T03:42:06;94846.72;;;-0.20;68.92
85304;BME280;75708;47.930;13.782;2024-01-15T03:44:31;94848.91;;;-0.17;68.69
85304;BME280;75708;47.930;13.782;2024-01-15T03:46:57;94843.38;;;-0.03;66.67
85304;BME280;75708;47.930;13.782;2024-01-15T03:49:23;94822.91;;;-0.19;68.22
85304;BME280;75708;47.930;13.782;2024-01-15T03:51:48;94825.94;;;-0.22;69.50
85304;BME280;75708;47.930;13.782;2024-01-15T03:54:14;94841.38;;;-0.07;69.94
85304;BME280;75708;47.930;13.782;2024-01-15T03:56:39;94862.22;;;-0.12;70.05
85304;BME280;75708;47.930;13.782;2024-01-15T03:59:07;94845.88;;;-0.14;68.32
85304;BME280;75708;47.930;13.782;2024-01-15T04:01:33;94843.16;;;-0.01;69.97
85304;BME280;75708;47.930;13.782;2024-01-15T04:03:58;94820.06;;;-0.17;69.44
85304;BME280;75708;47.930;13.782;2024-01-15T04:06:24;94838.41;;;-0.11;69.40
85304;BME280;75708;47.930;13.782;2024-01-15T04:08:49;94846.22;;;-0.04;69.32
85304;BME280;75708;47.930;13.782;2024-01-15T04:11:15;94844.88;;;-0.13;68.34
85304;BME280;75708;47.930;13.782;2024-01-15T04:13:40;94835.31;;;-0.08;67.31
85304;BME280;75708;47.930;13.782;2024-01-15T04:16:06;94828.84;;;-0.05;68.94
85304;BME280;75708;47.930;13.782;2024-01-15T04:18:32;94825.06;;;-0.09;67.88
85304;BME280;75708;47.930;13.782;2024-01-15T04:20:57;94832.88;;;-0.03;68.72
85304;BME280;75708;47.930;13.782;2024-01-15T04:23:23;94830.94;;;-0.14;69.34
85304;BME280;75708;47.930;13.782;2024-01-15T04:25:48;94834.09;;;-0.05;67.40
85304;BME280;75708;47.930;13.782;2024-01-15T04:28:14;94832.66;;;-0.01;66.97
85304;BME280;75708;47.930;13.782;2024-01-15T04:30:39;94816.84;;;-0.19;67.97
85304;BME280;75708;47.930;13.782;2024-01-15T04:33:05;94836.53;;;-0.04;66.43
85304;BME280;75708;47.930;13.782;2024-01-15T04:35:31;94820.59;;;-0.09;66.88
85304;BME280;75708;47.930;13.782;2024-01-15T04:37:56;94832.50;;;-0.06;67.38
85304;BME280;75708;47.930;13.782;2024-01-15T04:40:22;94821.50;;;-0.21;68.48
85304;BME280;75708;47.930;13.782;2024-01-15T04:42:48;94805.69;;;-0.40;67.41
85304;BME280;75708;47.930;13.782;2024-01-15T04:45:13;94839.31;;;-0.30;69.37
85304;BME280;75708;47.930;13.782;2024-01-15T04:47:39;94836.25;;;-0.20;68.04
85304;BME280;75708;47.930;13.782;2024-01-15T04:50:05;94836.44;;;-0.22;68.59
85304;BME280;75708;47.930;13.782;2024-01-15T04:52:31;94818.94;;;-0.28;67.37
85304;BME280;75708;47.930;13.782;2024-01-15T04:54:56;94837.88;;;-0.26;67.91
85304;BME280;75708;47.930;13.782;2024-01-15T04:57:22;94837.03;;;-0.20;67.27
85304;BME280;75708;47.930;13.782;2024-01-15T04:59:47;94838.66;;;-0.19;67.59
85304;BME280;75708;47.930;13.782;2024-01-15T05:02:13;94830.13;;;-0.14;65.91
85304;BME280;75708;47.930;13.782;2024-01-15T05:04:38;94834.63;;;-0.21;66.52
85304;BME280;75708;47.930;13.782;2024-01-15T05:07:04;94830.34;;;-0.16;65.99
85304;BME280;75708;47.930;13.782;2024-01-15T05:09:30;94819.13;;;-0.29;65.89
85304;BME280;75708;47.930;13.782;2024-01-15T05:11:56;94826.50;;;-0.13;65.52
85304;BME280;75708;47.930;13.782;2024-01-15T05:14:21;94834.28;;;-0.31;66.97
85304;BME280;75708;47.930;13.782;2024-01-15T05:16:47;94809.00;;;-0.26;65.60
85304;BME280;75708;47.930;13.782;2024-01-15T05:19:13;94831.25;;;-0.28;67.19
85304;BME280;75708;47.930;13.782;2024-01-15T05:21:39;94835.03;;;-0.24;66.97
85304;BME280;75708;47.930;13.782;2024-01-15T05:24:04;94822.13;;;-0.26;66.67
85304;BME280;75708;47.930;13.782;2024-01-15T05:26:30;94803.59;;;-0.31;66.28
85304;BME280;75708;47.930;13.782;2024-01-15T05:28:55;94815.91;;;-0.31;66.11
85304;BME280;75708;47.930;13.782;2024-01-15T05:31:21;94836.34;;;-0.09;65.12
85304;BME280;75708;47.930;13.782;2024-01-15T05:33:46;94832.94;;;-0.09;64.88
85304;BME280;75708;47.930;13.782;2024-01-15T05:36:12;94834.69;;;-0.28;67.41
85304;BME280;75708;47.930;13.782;2024-01-15T05:38:38;94835.09;;;-0.31;66.21
85304;BME280;75708;47.930;13.782;2024-01-15T05:41:05;94839.53;;;-0.31;66.65
85304;BME280;75708;47.930;13.782;2024-01-15T05:43:30;94798.56;;;-0.32;65.69
85304;BME280;75708;47.930;13.782;2024-01-15T05:45:56;94814.31;;;-0.32;67.14
85304;BME280;75708;47.930;13.782;2024-01-15T05:48:21;94813.03;;;-0.23;65.25
85304;BME280;75708;47.930;13.782;2024-01-15T05:50:47;94789.53;;;-0.36;66.00
85304;BME280;75708;47.930;13.782;2024-01-15T05:53:13;94830.13;;;-0.14;65.90
85304;BME280;75708;47.930;13.782;2024-01-15T05:55:38;94834.03;;;-0.23;67.40
85304;BME280;75708;47.930;13.782;2024-01-15T05:58:04;94808.34;;;-0.46;67.12
85304;BME280;75708;47.930;13.782;2024-01-15T06:00:30;94832.22;;;-0.23;66.87
85304;BME280;75708;47.930;13.782;2024-01-15T06:02:58;94820.00;;;-0.35;67.40
85304;BME280;75708;47.930;13.782;2024-01-15T06:05:23;94823.78;;;-0.31;66.97
85304;BME280;75708;47.930;13.782;2024-01-15T06:07:49;94827.81;;;-0.29;67.50
85304;BME280;75708;47.930;13.782;2024-01-15T06:10:15;94841.75;;;-0.28;68.75
85304;BME280;75708;47.930;13.782;2024-01-15T06:12:40;94833.72;;;-0.40;68.27
85304;BME280;75708;47.930;13.782;2024-01-15T06:15:06;94833.66;;;-0.27;67.45
85304;BME280;75708;47.930;13.782;2024-01-15T06:17:31;94821.97;;;-0.31;67.19
85304;BME280;75708;47.930;13.782;2024-01-15T06:19:57;94834.88;;;-0.29;68.32
85304;BME280;75708;47.930;13.782;2024-01-15T06:22:23;94804.63;;;-0.32;66.54
85304;BME280;75708;47.930;13.782;2024-01-15T06:24:48;94834.22;;;-0.18;67.01
85304;BME280;75708;47.930;13.782;2024-01-15T06:27:14;94810.13;;;-0.40;66.71
85304;BME280;75708;47.930;13.782;2024-01-15T06:29:45;94820.97;;;-0.30;67.54
85304;BME280;75708;47.930;13.782;2024-01-15T06:32:14;94818.06;;;-0.22;66.94
85304;BME280;75708;47.930;13.782;2024-01-15T06:34:39;94800.84;;;-0.43;68.27
85304;BME280;75708;47.930;13.782;2024-01-15T06:37:06;94799.59;;;-0.33;68.80
85304;BME280;75708;47.930;13.782;2024-01-15T06:39:31;94790.91;;;-0.34;67.38
85304;BME280;75708;47.930;13.782;2024-01-15T06:41:57;94799.16;;;-0.30;67.76
85304;BME280;75708;47.930;13.782;2024-01-15T06:44:23;94807.78;;;-0.23;67.61
85304;BME280;75708;47.930;13.782;2024-01-15T06:46:48;94761.97;;;-0.52;68.09
85304;BME280;75708;47.930;13.782;2024-01-15T06:49:14;94810.00;;;-0.20;66.93
85304;BME280;75708;47.930;13.782;2024-01-15T06:51:40;94806.56;;;-0.21;67.31
85304;BME280;75708;47.930;13.782;2024-01-15T06:54:05;94788.19;;;-0.46;67.78
85304;BME280;75708;47.930;13.782;2024-01-15T06:56:31;94812.22;;;-0.24;67.90
85304;BME280;75708;47.930;13.782;2024-01-15T06:58:57;94796.94;;;-0.27;66.65
85304;BME280;75708;47.930;13.782;2024-01-15T07:01:23;94806.38;;;-0.19;67.35
85304;BME280;75708;47.930;13.782;2024-01-15T07:03:48;94801.75;;;-0.24;66.46
85304;BME280;75708;47.930;13.782;2024-01-15T07:06:14;94808.97;;;-0.19;66.78
85304;BME280;75708;47.930;13.782;2024-01-15T07:08:40;94804.34;;;-0.24;65.94
85304;BME280;75708;47.930;13.782;2024-01-15T07:11:06;94828.56;;;-0.22;67.04
85304;BME280;75708;47.930;13.782;2024-01-15T07:13:32;94819.47;;;-0.19;66.51
85304;BME280;75708;47.930;13.782;2024-01-15T07:15:57;94792.69;;;-0.28;66.48
85304;BME280;75708;47.930;13.782;2024-01-15T07:18:23;94823.00;;;-0.07;66.46
85304;BME280;75708;47.930;13.782;2024-01-15T07:20:49;94818.03;;;-0.15;66.67
85304;BME280;75708;47.930;13.782;2024-01-15T07:23:14;94811.75;;;-0.14;64.97
85304;BME280;75708;47.930;13.782;2024-01-15T07:25:40;94820.81;;;-0.10;67.29
85304;BME280;75708;47.930;13.782;2024-01-15T07:28:06;94814.78;;;-0.11;64.92
85304;BME280;75708;47.930;13.782;2024-01-15T07:30:31;94810.66;;;0.00;65.92
85304;BME280;75708;47.930;13.782;2024-01-15T07:32:57;94802.78;;;0.00;65.10
85304;BME280;75708;47.930;13.782;2024-01-15T07:35:23;94821.72;;;0.02;66.22
85304;BME280;75708;47.930;13.782;2024-01-15T07:37:48;94821.50;;;0.04;66.07
85304;BME280;75708;47.930;13.782;2024-01-15T07:40:14;94834.91;;;-0.05;66.34
85304;BME280;75708;47.930;13.782;2024-01-15T07:42:40;94818.63;;;-0.13;67.94
85304;BME280;75708;47.930;13.782;2024-01-15T07:45:08;94825.16;;;0.03;66.43
85304;BME280;75708;47.930;13.782;2024-01-15T07:47:33;94816.00;;;-0.13;67.11
85304;BME280;75708;47.930;13.782;2024-01-15T07:49:59;94805.81;;;-0.28;68.63
85304;BME280;75708;47.930;13.782;2024-01-15T07:52:24;94806.88;;;-0.35;69.15
85304;BME280;75708;47.930;13.782;2024-01-15T07:54:50;94826.66;;;-0.08;70.19
85304;BME280;75708;47.930;13.782;2024-01-15T07:57:16;94833.16;;;0.14;68.12
85304;BME280;75708;47.930;13.782;2024-01-15T07:59:41;94809.06;;;-0.32;70.17
85304;BME280;75708;47.930;13.782;2024-01-15T08:02:07;94823.78;;;-0.31;72.22
85304;BME280;75708;47.930;13.782;2024-01-15T08:04:32;94819.63;;;-0.14;70.97
85304;BME280;75708;47.930;13.782;2024-01-15T08:06:58;94817.47;;;-0.24;71.76
85304;BME280;75708;47.930;13.782;2024-01-15T08:09:29;94786.94;;;-0.43;71.09
85304;BME280;75708;47.930;13.782;2024-01-15T08:11:54;94823.28;;;-0.15;71.33
85304;BME280;75708;47.930;13.782;2024-01-15T08:14:20;94814.97;;;-0.12;71.31
85304;BME280;75708;47.930;13.782;2024-01-15T08:16:45;94827.72;;;-0.16;72.86
85304;BME280;75708;47.930;13.782;2024-01-15T08:19:11;94839.13;;;-0.35;73.92
85304;BME280;75708;47.930;13.782;2024-01-15T08:21:37;94837.50;;;-0.29;74.97
85304;BME280;75708;47.930;13.782;2024-01-15T08:24:02;94844.56;;;-0.30;76.74
85304;BME280;75708;47.930;13.782;2024-01-15T08:26:29;94845.06;;;-0.15;75.58
85304;BME280;75708;47.930;13.782;2024-01-15T08:28:55;94841.09;;;-0.24;75.61
85304;BME280;75708;47.930;13.782;2024-01-15T08:31:20;94841.97;;;-0.05;74.38
85304;BME280;75708;47.930;13.782;2024-01-15T08:33:46;94843.97;;;-0.32;75.52
85304;BME280;75708;47.930;13.782;2024-01-15T08:36:11;94825.75;;;-0.20;75.53
85304;BME280;75708;47.930;13.782;2024-01-15T08:38:37;94852.53;;;-0.12;74.36
85304;BME280;75708;47.930;13.782;2024-01-15T08:41:03;94845.13;;;-0.21;74.67
85304;BME280;75708;47.930;13.782;2024-01-15T08:43:28;94840.34;;;-0.31;75.11
85304;BME280;75708;47.930;13.782;2024-01-15T08:45:56;94844.00;;;-0.07;73.52
85304;BME280;75708;47.930;13.782;2024-01-15T08:48:22;94812.03;;;-0.22;74.83
85304;BME280;75708;47.930;13.782;2024-01-15T08:50:48;94831.53;;;-0.12;75.17
85304;BME280;75708;47.930;13.782;2024-01-15T08:53:14;94833.66;;;-0.27;72.84
85304;BME280;75708;47.930;13.782;2024-01-15T08:55:40;94838.00;;;0.11;70.69
85304;BME280;75708;47.930;13.782;2024-01-15T08:58:08;94834.00;;;0.08;72.52
85304;BME280;75708;47.930;13.782;2024-01-15T09:00:33;94809.63;;;0.26;70.71
85304;BME280;75708;47.930;13.782;2024-01-15T09:02:59;94831.78;;;0.30;70.30
85304;BME280;75708;47.930;13.782;2024-01-15T09:05:25;94827.41;;;-0.01;70.11
85304;BME280;75708;47.930;13.782;2024-01-15T09:07:50;94822.56;;;-0.29;70.78
85304;BME280;75708;47.930;13.782;2024-01-15T09:10:18;94831.91;;;-0.08;70.20
85304;BME280;75708;47.930;13.782;2024-01-15T09:12:43;94838.00;;;0.11;70.26
85304;BME280;75708;47.930;13.782;2024-01-15T09:15:09;94835.91;;;0.19;70.39
85304;BME280;75708;47.930;13.782;2024-01-15T09:17:35;94837.66;;;0.07;70.42
85304;BME280;75708;47.930;13.782;2024-01-15T09:20:05;94819.00;;;-0.10;69.88
85304;BME280;75708;47.930;13.782;2024-01-15T09:22:31;94833.56;;;0.11;70.30
85304;BME280;75708;47.930;13.782;2024-01-15T09:24:57;94837.44;;;0.09;70.15
85304;BME280;75708;47.930;13.782;2024-01-15T09:27:22;94823.28;;;-0.15;70.31
85304;BME280;75708;47.930;13.782;2024-01-15T09:29:48;94841.28;;;0.06;70.58
85304;BME280;75708;47.930;13.782;2024-01-15T09:32:13;94840.41;;;0.37;68.63
85304;BME280;75708;47.930;13.782;2024-01-15T09:34:41;94834.38;;;0.12;69.65
85304;BME280;75708;47.930;13.782;2024-01-15T09:37:06;94840.75;;;-0.03;70.77
85304;BME280;75708;47.930;13.782;2024-01-15T09:39:32;94843.00;;;-0.06;70.77
85304;BME280;75708;47.930;13.782;2024-01-15T09:41:57;94844.19;;;-0.02;69.24
85304;BME280;75708;47.930;13.782;2024-01-15T09:44:23;94839.09;;;0.03;69.28
85304;BME280;75708;47.930;13.782;2024-01-15T09:46:49;94837.91;;;0.24;69.33
85304;BME280;75708;47.930;13.782;2024-01-15T09:49:18;94839.94;;;0.22;70.00
85304;BME280;75708;47.930;13.782;2024-01-15T09:51:44;94825.38;;;0.26;69.54
85304;BME280;75708;47.930;13.782;2024-01-15T09:54:10;94836.22;;;0.54;68.20
85304;BME280;75708;47.930;13.782;2024-01-15T09:56:38;94853.94;;;0.41;67.74
85304;BME280;75708;47.930;13.782;2024-01-15T09:59:05;94839.19;;;0.40;68.20
85304;BME280;75708;47.930;13.782;2024-01-15T10:01:32;94846.66;;;0.43;67.59
85304;BME280;75708;47.930;13.782;2024-01-15T10:03:58;94843.06;;;0.55;66.75
85304;BME280;75708;47.930;13.782;2024-01-15T10:06:27;94777.91;;;0.03;67.78
85304;BME280;75708;47.930;13.782;2024-01-15T10:08:53;94836.66;;;0.51;68.91
85304;BME280;75708;47.930;13.782;2024-01-15T10:11:19;94834.88;;;0.45;68.95
85304;BME280;75708;47.930;13.782;2024-01-15T10:13:46;94826.50;;;0.55;68.61
85304;BME280;75708;47.930;13.782;2024-01-15T10:16:12;94833.28;;;0.44;68.60
85304;BME280;75708;47.930;13.782;2024-01-15T10:18:38;94830.22;;;0.47;69.47
85304;BME280;75708;47.930;13.782;2024-01-15T10:21:06;94809.34;;;0.34;69.34
85304;BME280;75708;47.930;13.782;2024-01-15T10:23:32;94800.00;;;0.38;68.95
85304;BME280;75708;47.930;13.782;2024-01-15T10:25:58;94819.25;;;0.32;70.05
85304;BME280;75708;47.930;13.782;2024-01-15T10:28:26;94793.88;;;0.44;69.03
85304;BME280;75708;47.930;13.782;2024-01-15T10:30:55;94812.59;;;0.72;70.25
85304;BME280;75708;47.930;13.782;2024-01-15T10:33:22;94798.88;;;0.52;69.25
85304;BME280;75708;47.930;13.782;2024-01-15T10:35:53;94796.09;;;0.84;69.23
85304;BME280;75708;47.930;13.782;2024-01-15T10:38:20;94794.19;;;0.72;69.62
85304;BME280;75708;47.930;13.782;2024-01-15T10:40:56;94803.91;;;0.90;67.05
85304;BME280;75708;47.930;13.782;2024-01-15T10:43:22;94793.84;;;0.87;68.73
85304;BME280;75708;47.930;13.782;2024-01-15T10:45:49;94805.00;;;1.01;67.92
85304;BME280;75708;47.930;13.782;2024-01-15T10:48:17;94805.38;;;1.04;67.02
85304;BME280;75708;47.930;13.782;2024-01-15T10:50:47;94787.28;;;0.78;67.02
85304;BME280;75708;47.930;13.782;2024-01-15T10:53:14;94805.50;;;1.09;66.36
85304;BME280;75708;47.930;13.782;2024-01-15T10:55:41;94776.59;;;0.91;64.37
85304;BME280;75708;47.930;13.782;2024-01-15T10:58:07;94803.25;;;0.95;65.16
85304;BME280;75708;47.930;13.782;2024-01-15T11:00:36;94789.84;;;1.14;63.29
85304;BME280;75708;47.930;13.782;2024-01-15T11:03:07;94773.81;;;1.04;63.93
85304;BME280;75708;47.930;13.782;2024-01-15T11:05:37;94789.09;;;0.96;64.91
85304;BME280;75708;47.930;13.782;2024-01-15T11:08:06;94755.91;;;1.13;62.68
85304;BME280;75708;47.930;13.782;2024-01-15T11:10:46;94780.19;;;1.27;62.80
85304;BME280;75708;47.930;13.782;2024-01-15T11:13:43;94778.69;;;1.19;63.13
85304;BME280;75708;47.930;13.782;2024-01-15T11:16:13;94779.44;;;1.38;62.12
85304;BME280;75708;47.930;13.782;2024-01-15T11:21:24;94770.31;;;1.40;60.76
85304;BME280;75708;47.930;13.782;2024-01-15T11:24:01;94765.69;;;1.36;60.59
85304;BME280;75708;47.930;13.782;2024-01-15T11:26:43;94765.53;;;1.49;60.61
85304;BME280;75708;47.930;13.782;2024-01-15T11:32:09;94762.16;;;1.30;60.13
85304;BME280;75708;47.930;13.782;2024-01-15T11:37:17;94749.44;;;1.27;61.25
85304;BME280;75708;47.930;13.782;2024-01-15T11:39:43;94755.38;;;1.64;59.13
85304;BME280;75708;47.930;13.782;2024-01-15T11:42:13;94746.13;;;1.73;60.99
85304;BME280;75708;47.930;13.782;2024-01-15T11:44:39;94726.41;;;1.52;59.83
85304;BME280;75708;47.930;13.782;2024-01-15T11:47:07;94742.06;;;1.59;60.61
85304;BME280;75708;47.930;13.782;2024-01-15T11:50:00;94734.78;;;1.61;60.65
85304;BME280;75708;47.930;13.782;2024-01-15T11:52:32;94734.41;;;1.46;60.54
85304;BME280;75708;47.930;13.782;2024-01-15T11:57:52;94721.84;;;1.71;59.79
85304;BME280;75708;47.930;13.782;2024-01-15T12:00:20;94724.81;;;1.63;60.06
85304;BME280;75708;47.930;13.782;2024-01-15T12:02:47;94728.13;;;1.59;61.59
85304;BME280;75708;47.930;13.782;2024-01-15T12:05:15;94733.28;;;1.54;61.68
85304;BME280;75708;47.930;13.782;2024-01-15T12:07:42;94726.88;;;1.49;60.23
85304;BME280;75708;47.930;13.782;2024-01-15T12:10:19;94732.34;;;1.60;61.09
85304;BME280;75708;47.930;13.782;2024-01-15T12:15:33;94713.13;;;1.47;60.60
85304;BME280;75708;47.930;13.782;2024-01-15T12:18:00;94711.00;;;1.26;61.07
85304;BME280;75708;47.930;13.782;2024-01-15T12:20:29;94719.09;;;1.55;60.56
85304;BME280;75708;47.930;13.782;2024-01-15T12:22:55;94699.72;;;1.37;60.62
85304;BME280;75708;47.930;13.782;2024-01-15T12:25:21;94665.72;;;1.24;59.96
85304;BME280;75708;47.930;13.782;2024-01-15T12:27:47;94664.47;;;1.27;61.23
85304;BME280;75708;47.930;13.782;2024-01-15T12:30:13;94706.38;;;1.51;59.73
85304;BME280;75708;47.930;13.782;2024-01-15T12:32:40;94710.25;;;1.07;60.47
85304;BME280;75708;47.930;13.782;2024-01-15T12:35:07;94718.09;;;0.96;62.56
85304;BME280;75708;47.930;13.782;2024-01-15T12:37:35;94707.09;;;1.17;62.12
85304;BME280;75708;47.930;13.782;2024-01-15T12:40:01;94705.94;;;1.13;61.84
85304;BME280;75708;47.930;13.782;2024-01-15T12:42:28;94718.72;;;1.09;61.89
85304;BME280;75708;47.930;13.782;2024-01-15T12:44:56;94714.59;;;1.02;62.54
85304;BME280;75708;47.930;13.782;2024-01-15T12:47:22;94717.88;;;0.97;63.57
85304;BME280;75708;47.930;13.782;2024-01-15T12:49:48;94722.59;;;1.07;64.74
85304;BME280;75708;47.930;13.782;2024-01-15T12:52:19;94715.59;;;1.01;64.75
85304;BME280;75708;47.930;13.782;2024-01-15T12:54:47;94715.75;;;0.58;65.41
85304;BME280;75708;47.930;13.782;2024-01-15T12:57:13;94716.75;;;0.57;67.40
85304;BME280;75708;47.930;13.782;2024-01-15T12:59:38;94708.59;;;0.47;66.99
85304;BME280;75708;47.930;13.782;2024-01-15T13:02:04;94715.44;;;0.48;67.39
85304;BME280;75708;47.930;13.782;2024-01-15T13:04:29;94727.91;;;0.70;66.32